Santa Mae Laura — CUQJ — position and weather

sailwx.info

Track history (hours):
 
Tides and Currents Weather Stations Pressure Air Temp Water Temp Dewpoint Dewpoint Depression Visibility Wind Speed Wind Dir Waves Ship Positions

Santa Mae Laura

Last reported at 2017-Oct-09 21:03 UTC. Time now 2017-Nov-18 08:56 UTC.
Position N 41°44' W 009°13'.
Warning: this ship's position is 39 days out of date.

Length 24 m.

Type: Fishing. MMSI: 263432000.

Date/timePositionNaut miles runAvg speedWind from/ knotsBaromVisibWave heightAir tempDewpointWater temp
2017-Oct-09 21:03N 41°44' W 009°13'0 0.9
2017-Oct-09 20:59N 41°44' W 009°13'0 0.9
2017-Oct-09 20:30N 41°45' W 009°13'1 0.7
2017-Oct-09 18:56N 41°45' W 009°11'1 2.8
2017-Oct-09 18:30N 41°46' W 009°11'  
2017-Oct-05 03:31N 42°03' W 009°12'0 2.8
2017-Oct-05 03:30N 42°03' W 009°12'2 3.1
2017-Oct-05 02:58N 42°02' W 009°12'2 4.0
2017-Oct-05 02:31N 41°60' W 009°11'2 3.9
2017-Oct-05 02:00N 41°58' W 009°11'2 4.1
2017-Oct-05 01:30N 41°56' W 009°11'  
Track history (hours):
 
Tides and Currents Weather Stations Pressure Air Temp Water Temp Dewpoint Dewpoint Depression Visibility Wind Speed Wind Dir Waves Ship Positions

Santa Mae Laura

Last reported at 2017-Oct-09 21:03 UTC. Time now 2017-Nov-18 08:56 UTC.
Position N 41°44' W 009°13'.
Warning: this ship's position is 39 days out of date.

Length 24 m.

Type: Fishing. MMSI: 263432000.

Date/timePositionNaut miles runAvg speedWind from/ knotsBaromVisibWave heightAir tempDewpointWater temp
2017-Oct-09 21:03N 41°44' W 009°13'0 0.9
2017-Oct-09 20:59N 41°44' W 009°13'0 0.9
2017-Oct-09 20:30N 41°45' W 009°13'1 0.7
2017-Oct-09 18:56N 41°45' W 009°11'1 2.8
2017-Oct-09 18:30N 41°46' W 009°11'  
2017-Oct-05 03:31N 42°03' W 009°12'0 2.8
2017-Oct-05 03:30N 42°03' W 009°12'2 3.1
2017-Oct-05 02:58N 42°02' W 009°12'2 4.0
2017-Oct-05 02:31N 41°60' W 009°11'2 3.9
2017-Oct-05 02:00N 41°58' W 009°11'2 4.1
2017-Oct-05 01:30N 41°56' W 009°11'  

Dump ship's entire track history